Time;durP1;ratioP1;P1;durP2;ratioP2;P2;SDS_P1;SDS_P2;PMS_P1;PMS_P2;Temp;Humidity;BMP_temperature;BMP_pressure;BME280_temperature;BME280_humidity;BME280_pressure;Samples;Min_cycle;Max_cycle;Signal;HPM_P1;HPM_P2
2021/07/13 00:00:56;;;;;;;;;;;;;;;21.30;93.83;99970.80;1693922;82;20216;-84
2021/07/13 00:03:21;;;;;;;;;;;;;;;21.33;93.77;99973.02;1710515;82;21258;-85
2021/07/13 00:05:48;;;;;;;;;;;;;;;21.34;94.23;99966.61;1708069;82;20455;-84
2021/07/13 00:08:14;;;;;;;;;;;;;;;21.33;94.07;99956.91;1707586;82;20221;-83
2021/07/13 00:10:45;;;;;;;;;;;;;;;21.37;94.01;99952.72;1706871;82;21287;-84
2021/07/13 00:13:10;;;;;;;;;;;;;;;21.51;93.95;99953.34;1714410;83;20220;-84
2021/07/13 00:15:39;;;;;;;;;;;;;;;21.48;92.61;99969.36;1710084;82;21955;-85
2021/07/13 00:18:05;;;;;;;;;;;;;;;21.07;93.42;99967.04;1714079;82;20298;-88
2021/07/13 00:20:32;;;;;;;;;;;;;;;21.02;94.54;99969.61;1710213;83;20166;-84
2021/07/13 00:22:58;;;;;;;;;;;;;;;20.80;94.79;99970.12;1680100;83;20176;-85
2021/07/13 00:25:24;;;;;;;;;;;;;;;20.60;96.12;99981.59;1700777;82;20158;-84
2021/07/13 00:27:50;;;;;;;;;;;;;;;20.44;97.02;99973.65;1704576;82;21935;-83
2021/07/13 00:30:17;;;;;;;;;;;;;;;20.47;97.89;99972.39;1703350;82;20147;-84
2021/07/13 00:32:43;;;;;;;;;;;;;;;20.25;98.74;99975.53;1707617;82;20181;-84
2021/07/13 00:35:12;;;;;;;;;;;;;;;20.23;98.84;99978.97;1713180;82;20126;-84
2021/07/13 00:37:46;;;;;;;;;;;;;;;20.18;100.00;99977.46;1712258;82;20175;-84
2021/07/13 00:40:12;;;;;;;;;;;;;;;20.31;99.51;99993.41;1718463;82;21229;-85
2021/07/13 00:42:40;;;;;;;;;;;;;;;20.35;99.04;99989.22;1713925;82;20186;-84
2021/07/13 00:45:08;;;;;;;;;;;;;;;20.27;99.12;99993.55;1704991;82;20178;-84
2021/07/13 00:47:35;;;;;;;;;;;;;;;20.43;98.17;99980.89;1706021;82;20513;-84
2021/07/13 00:50:01;;;;;;;;;;;;;;;20.46;97.53;99988.98;1710761;82;20151;-85
2021/07/13 00:52:28;;;;;;;;;;;;;;;20.47;97.96;100012.63;1709428;82;21046;-85
2021/07/13 00:54:53;;;;;;;;;;;;;;;20.53;97.79;100045.27;1711847;82;20823;-84
2021/07/13 00:57:19;;;;;;;;;;;;;;;20.59;96.97;100056.44;1703214;82;20213;-87
2021/07/13 00:59:45;;;;;;;;;;;;;;;20.59;96.05;100060.46;1706595;82;20177;-83
2021/07/13 01:02:12;;;;;;;;;;;;;;;20.67;95.41;100051.32;1715138;82;20433;-84
2021/07/13 01:04:44;;;;;;;;;;;;;;;20.77;94.60;100043.03;1701220;82;20981;-87
2021/07/13 01:07:13;;;;;;;;;;;;;;;20.79;93.24;100040.94;1678714;83;20210;-84
2021/07/13 01:09:57;;;;;;;;;;;;;;;20.83;91.81;100021.69;1712618;83;20146;-83
2021/07/13 01:12:37;;;;;;;;;;;;;;;20.83;91.17;100017.13;1713216;82;20575;-84
2021/07/13 01:15:05;;;;;;;;;;;;;;;20.84;90.92;100015.29;1706938;82;20513;-83
2021/07/13 01:17:50;;;;;;;;;;;;;;;20.71;88.38;100009.05;1691336;83;21635;-83
2021/07/13 01:20:49;;;;;;;;;;;;;;;20.80;88.36;99996.95;1712759;82;20163;-83
2021/07/13 01:23:25;;;;;;;;;;;;;;;20.90;87.09;99995.59;1689360;82;20335;-87
2021/07/13 01:26:14;;;;;;;;;;;;;;;20.92;86.97;99993.48;1710649;83;20215;-84
2021/07/13 01:28:42;;;;;;;;;;;;;;;20.83;85.02;99990.30;1713047;82;20165;-84
2021/07/13 01:31:11;;;;;;;;;;;;;;;20.66;85.98;99992.79;1701787;82;21088;-86
2021/07/13 01:33:40;;;;;;;;;;;;;;;20.57;86.93;99995.45;1709650;82;20157;-84
2021/07/13 01:36:09;;;;;;;;;;;;;;;20.59;87.22;99990.17;1674538;83;20554;-83
2021/07/13 01:38:40;;;;;;;;;;;;;;;20.60;87.92;99999.03;1693607;82;20239;-84
2021/07/13 01:41:10;;;;;;;;;;;;;;;20.55;87.99;100001.58;1704682;82;20164;-85
2021/07/13 01:43:40;;;;;;;;;;;;;;;20.58;88.66;100009.18;1677236;83;21100;-84
2021/07/13 01:46:07;;;;;;;;;;;;;;;20.62;88.56;100004.48;1710619;82;20127;-84
2021/07/13 01:48:34;;;;;;;;;;;;;;;20.53;87.88;99995.63;1707193;82;20144;-84
2021/07/13 01:51:00;;;;;;;;;;;;;;;20.55;88.22;99986.30;1706455;82;20120;-84
2021/07/13 01:53:29;;;;;;;;;;;;;;;20.62;88.03;99984.89;1709369;82;20139;-83
2021/07/13 01:55:54;;;;;;;;;;;;;;;20.70;87.01;99985.94;1683567;83;21176;-83
2021/07/13 01:58:21;;;;;;;;;;;;;;;20.68;87.23;99974.62;1701976;82;20255;-84
2021/07/13 02:00:48;;;;;;;;;;;;;;;20.67;86.78;99944.80;1710385;82;20209;-83
2021/07/13 02:03:16;;;;;;;;;;;;;;;20.91;87.56;99922.05;1712887;82;20180;-83
2021/07/13 02:05:41;;;;;;;;;;;;;;;21.04;86.46;99919.17;1669274;83;20224;-88
2021/07/13 02:08:07;;;;;;;;;;;;;;;21.11;86.46;99911.81;1703864;82;21016;-82
2021/07/13 02:10:34;;;;;;;;;;;;;;;21.21;85.50;99909.91;1717282;82;20197;-84
2021/07/13 02:13:00;;;;;;;;;;;;;;;21.24;86.11;99902.73;1695569;82;20152;-83
2021/07/13 02:15:25;;;;;;;;;;;;;;;21.31;86.52;99899.93;1700178;82;20328;-83
2021/07/13 02:17:51;;;;;;;;;;;;;;;21.34;85.81;99892.21;1688275;83;20182;-84
2021/07/13 02:20:19;;;;;;;;;;;;;;;21.48;85.27;99883.92;1712144;82;21076;-84
2021/07/13 02:22:47;;;;;;;;;;;;;;;21.51;86.45;99884.30;1715193;82;20191;-84
2021/07/13 02:25:17;;;;;;;;;;;;;;;21.55;85.45;99898.09;1715625;82;20193;-84
2021/07/13 02:27:45;;;;;;;;;;;;;;;21.41;86.83;99936.44;1706794;82;20225;-84
2021/07/13 02:30:11;;;;;;;;;;;;;;;21.26;88.51;100036.80;1700505;82;20490;-84
2021/07/13 02:32:43;;;;;;;;;;;;;;;21.07;88.49;100075.78;1707214;82;21136;-83
2021/07/13 02:35:11;;;;;;;;;;;;;;;20.59;87.11;100072.00;1708658;82;20168;-85
2021/07/13 02:37:40;;;;;;;;;;;;;;;20.66;86.64;100054.50;1706165;83;20167;-82
2021/07/13 02:40:07;;;;;;;;;;;;;;;20.48;84.79;100030.34;1707171;82;20192;-84
2021/07/13 02:42:35;;;;;;;;;;;;;;;20.39;84.29;100011.88;1708823;82;20149;-85
2021/07/13 02:45:03;;;;;;;;;;;;;;;20.19;86.17;99990.64;1701695;82;21740;-86
2021/07/13 02:47:30;;;;;;;;;;;;;;;20.13;88.20;100040.33;1708308;82;20178;-84
2021/07/13 02:49:56;;;;;;;;;;;;;;;19.49;92.13;100032.41;1708537;82;20226;-83
2021/07/13 02:52:31;;;;;;;;;;;;;;;19.62;93.60;100083.19;1697353;83;20531;-85
2021/07/13 02:55:07;;;;;;;;;;;;;;;19.49;95.73;100072.58;1705737;82;20171;-87
2021/07/13 02:57:32;;;;;;;;;;;;;;;19.27;96.92;100072.92;1702897;82;21162;-84
2021/07/13 03:00:03;;;;;;;;;;;;;;;19.00;98.23;100055.69;1697608;82;20120;-84
2021/07/13 03:02:28;;;;;;;;;;;;;;;18.96;98.78;100063.83;1705664;82;20081;-83
2021/07/13 03:04:57;;;;;;;;;;;;;;;19.17;98.41;100083.27;1714936;82;20520;-82
2021/07/13 03:07:22;;;;;;;;;;;;;;;19.12;97.56;100071.05;1700441;82;20179;-83
2021/07/13 03:09:48;;;;;;;;;;;;;;;19.18;99.07;100048.78;1700013;82;21184;-83
2021/07/13 03:12:16;;;;;;;;;;;;;;;19.22;97.61;100033.94;1711974;83;20193;-83
2021/07/13 03:14:43;;;;;;;;;;;;;;;19.29;97.18;100029.34;1712302;82;20147;-84
2021/07/13 03:17:09;;;;;;;;;;;;;;;19.29;97.04;100036.04;1708683;82;20152;-84
2021/07/13 03:19:38;;;;;;;;;;;;;;;19.27;96.77;100036.78;1719794;83;20177;-82
2021/07/13 03:22:04;;;;;;;;;;;;;;;19.40;97.89;100027.02;1714316;82;20125;-85
2021/07/13 03:24:30;;;;;;;;;;;;;;;19.41;97.27;100025.99;1715940;82;20826;-85
2021/07/13 03:26:58;;;;;;;;;;;;;;;19.43;97.24;100018.55;1701372;82;20196;-84
2021/07/13 03:29:25;;;;;;;;;;;;;;;19.50;96.59;100019.33;1679424;83;20360;-85
2021/07/13 03:31:51;;;;;;;;;;;;;;;19.51;95.65;100012.91;1713658;82;20214;-84
2021/07/13 03:34:17;;;;;;;;;;;;;;;19.57;95.98;100009.36;1709072;82;21076;-84
2021/07/13 03:36:46;;;;;;;;;;;;;;;19.61;94.68;99997.68;1707436;82;20171;-83
2021/07/13 03:39:12;;;;;;;;;;;;;;;19.58;93.96;100002.14;1715965;82;20450;-84
2021/07/13 03:41:39;;;;;;;;;;;;;;;19.64;94.23;99992.72;1654285;82;20489;-83
2021/07/13 03:44:11;;;;;;;;;;;;;;;19.72;93.54;99991.09;1695358;82;20457;-83
2021/07/13 03:46:37;;;;;;;;;;;;;;;19.71;92.46;99979.26;1700688;82;21156;-84
2021/07/13 03:49:06;;;;;;;;;;;;;;;19.79;94.24;99963.45;1709052;82;20112;-85
2021/07/13 03:51:45;;;;;;;;;;;;;;;19.89;94.26;99955.73;1716043;82;20510;-84
2021/07/13 03:54:14;;;;;;;;;;;;;;;20.02;93.75;99954.77;1715977;82;20130;-83
2021/07/13 03:56:40;;;;;;;;;;;;;;;20.20;93.60;99956.63;1709914;82;20175;-83
2021/07/13 03:59:05;;;;;;;;;;;;;;;20.19;93.24;99953.11;1707571;82;21075;-84
2021/07/13 04:01:33;;;;;;;;;;;;;;;20.24;94.23;99957.80;1704708;82;20152;-84
2021/07/13 04:04:00;;;;;;;;;;;;;;;20.28;91.58;99959.00;1706255;82;20141;-84
2021/07/13 04:06:28;;;;;;;;;;;;;;;20.31;91.91;99953.19;1705112;83;20167;-84
2021/07/13 04:08:54;;;;;;;;;;;;;;;20.39;91.20;99941.33;1705874;82;20871;-84
2021/07/13 04:11:24;;;;;;;;;;;;;;;20.48;93.01;99941.82;1695767;82;20545;-84
2021/07/13 04:13:49;;;;;;;;;;;;;;;20.55;91.07;99930.48;1706849;82;20152;-83
2021/07/13 04:16:15;;;;;;;;;;;;;;;20.64;92.09;99926.44;1712176;82;20240;-84
2021/07/13 04:18:45;;;;;;;;;;;;;;;20.72;91.59;99935.53;1698894;82;21123;-85
2021/07/13 04:21:13;;;;;;;;;;;;;;;20.75;92.48;99929.70;1709569;82;20459;-85
2021/07/13 04:23:39;;;;;;;;;;;;;;;20.89;93.42;99944.28;1704551;82;21268;-85
2021/07/13 04:26:06;;;;;;;;;;;;;;;20.89;92.92;99945.63;1714532;82;20622;-85
2021/07/13 04:28:32;;;;;;;;;;;;;;;20.96;94.55;99938.30;1681607;83;20225;-85
2021/07/13 04:31:01;;;;;;;;;;;;;;;21.00;95.19;99928.73;1703415;82;20173;-84
2021/07/13 04:33:27;;;;;;;;;;;;;;;21.07;95.91;99908.50;1713654;82;20193;-85
2021/07/13 04:35:55;;;;;;;;;;;;;;;21.15;94.95;99878.08;1719791;82;22003;-84
2021/07/13 04:38:25;;;;;;;;;;;;;;;21.28;93.39;99866.82;1701235;82;20177;-84
2021/07/13 04:40:51;;;;;;;;;;;;;;;21.38;92.25;99849.60;1712227;82;20174;-86
2021/07/13 04:43:18;;;;;;;;;;;;;;;21.38;93.67;99844.23;1713496;82;21484;-86
2021/07/13 04:45:45;;;;;;;;;;;;;;;21.57;92.65;99826.13;1678928;82;20227;-85
2021/07/13 04:48:15;;;;;;;;;;;;;;;21.63;92.16;99806.90;1712679;82;21066;-84
2021/07/13 04:50:41;;;;;;;;;;;;;;;21.65;90.92;99798.06;1675652;83;20218;-85
2021/07/13 04:53:08;;;;;;;;;;;;;;;21.65;91.04;99806.12;1667313;83;20217;-84
2021/07/13 04:55:34;;;;;;;;;;;;;;;21.53;90.89;99814.20;1707030;82;20255;-84
2021/07/13 04:58:01;;;;;;;;;;;;;;;21.53;90.13;99822.27;1714605;82;20158;-82
2021/07/13 05:00:27;;;;;;;;;;;;;;;21.55;89.36;99825.55;1713661;82;21045;-85
2021/07/13 05:02:52;;;;;;;;;;;;;;;21.59;92.93;99833.95;1701903;82;20762;-84
2021/07/13 05:05:18;;;;;;;;;;;;;;;21.66;93.47;99832.77;1700189;82;20150;-84
2021/07/13 05:07:46;;;;;;;;;;;;;;;21.74;93.00;99839.64;1706969;82;20201;-84
2021/07/13 05:10:13;;;;;;;;;;;;;;;21.75;92.95;99833.22;1714635;82;20260;-84
2021/07/13 05:12:39;;;;;;;;;;;;;;;21.88;92.67;99835.62;1708638;82;21067;-87
2021/07/13 05:15:07;;;;;;;;;;;;;;;21.99;91.08;99838.52;1712531;82;20142;-84
2021/07/13 05:17:36;;;;;;;;;;;;;;;21.98;92.15;99838.22;1706368;82;20124;-85
2021/07/13 05:20:03;;;;;;;;;;;;;;;22.00;92.40;99832.06;1719731;82;20146;-85
2021/07/13 05:22:29;;;;;;;;;;;;;;;22.16;91.54;99827.81;1707058;82;20166;-89
2021/07/13 05:24:55;;;;;;;;;;;;;;;22.21;90.58;99824.67;1712716;82;20607;-85
2021/07/13 05:27:21;;;;;;;;;;;;;;;22.29;90.00;99821.31;1715880;82;20265;-85
2021/07/13 05:29:46;;;;;;;;;;;;;;;22.32;89.74;99827.59;1694159;82;20329;-85
2021/07/13 05:32:12;;;;;;;;;;;;;;;22.21;89.85;99827.90;1703727;82;20152;-85
2021/07/13 05:34:37;;;;;;;;;;;;;;;22.22;89.81;99831.70;1703949;82;20164;-87
2021/07/13 05:37:05;;;;;;;;;;;;;;;22.13;90.75;99843.89;1713321;82;21871;-85
2021/07/13 05:39:30;;;;;;;;;;;;;;;22.15;90.63;99844.45;1702990;82;20150;-85
2021/07/13 05:41:56;;;;;;;;;;;;;;;22.13;91.09;99853.84;1714776;83;20163;-84
2021/07/13 05:44:22;;;;;;;;;;;;;;;22.23;91.36;99845.44;1711574;82;20091;-85
2021/07/13 05:46:47;;;;;;;;;;;;;;;22.27;90.92;99855.72;1705341;82;20679;-84
2021/07/13 05:49:13;;;;;;;;;;;;;;;22.33;90.84;99860.17;1715216;82;21100;-85
2021/07/13 05:51:38;;;;;;;;;;;;;;;22.33;89.38;99854.78;1708926;83;20166;-86
2021/07/13 05:54:04;;;;;;;;;;;;;;;22.32;89.05;99858.52;1714221;82;20248;-83
2021/07/13 05:56:30;;;;;;;;;;;;;;;22.29;89.49;99863.02;1713088;82;20110;-85
2021/07/13 05:58:57;;;;;;;;;;;;;;;22.33;90.43;99880.34;1705976;82;20649;-84
2021/07/13 06:01:24;;;;;;;;;;;;;;;22.40;90.27;99894.45;1681789;83;21360;-84
2021/07/13 06:03:49;;;;;;;;;;;;;;;22.36;90.60;99904.08;1702540;83;20223;-85
2021/07/13 06:06:15;;;;;;;;;;;;;;;22.38;91.52;99914.87;1703455;83;20229;-85
2021/07/13 06:08:41;;;;;;;;;;;;;;;22.47;92.04;99918.00;1708621;82;20637;-84
2021/07/13 06:11:06;;;;;;;;;;;;;;;22.53;91.60;99931.84;1702723;82;20142;-86
2021/07/13 06:13:32;;;;;;;;;;;;;;;22.57;91.03;99911.98;1717458;82;21211;-84
2021/07/13 06:15:58;;;;;;;;;;;;;;;22.62;90.84;99913.95;1705692;82;20183;-86
2021/07/13 06:18:23;;;;;;;;;;;;;;;22.66;90.06;99889.54;1714282;82;20217;-84
2021/07/13 06:20:49;;;;;;;;;;;;;;;22.66;90.23;99883.62;1705241;82;20140;-88
2021/07/13 06:23:17;;;;;;;;;;;;;;;22.51;87.53;99869.38;1713299;82;20150;-86
2021/07/13 06:25:42;;;;;;;;;;;;;;;22.35;88.04;99887.64;1714311;82;20094;-85
2021/07/13 06:28:08;;;;;;;;;;;;;;;22.32;88.40;99884.08;1712162;82;20373;-84
2021/07/13 06:30:34;;;;;;;;;;;;;;;22.31;88.62;99889.16;1705080;83;20252;-83
2021/07/13 06:33:00;;;;;;;;;;;;;;;22.23;89.25;99885.78;1706228;82;20270;-84
2021/07/13 06:35:26;;;;;;;;;;;;;;;22.19;89.87;99895.37;1712864;82;20173;-84
2021/07/13 06:37:52;;;;;;;;;;;;;;;22.15;90.28;99899.59;1714811;82;21055;-85
2021/07/13 06:40:18;;;;;;;;;;;;;;;22.21;90.96;99917.47;1714947;82;20558;-85
2021/07/13 06:42:43;;;;;;;;;;;;;;;22.26;90.74;99932.89;1717883;82;20174;-84
2021/07/13 06:45:09;;;;;;;;;;;;;;;22.35;91.61;99936.06;1711362;82;20154;-84
2021/07/13 06:47:35;;;;;;;;;;;;;;;22.34;90.65;99956.78;1713349;82;20193;-80
2021/07/13 06:50:01;;;;;;;;;;;;;;;22.42;90.96;99969.03;1704914;82;21737;-85
2021/07/13 06:52:27;;;;;;;;;;;;;;;22.51;91.42;99964.91;1711719;82;20196;-83
2021/07/13 06:54:53;;;;;;;;;;;;;;;22.46;90.63;99961.30;1697197;82;20816;-84
2021/07/13 06:57:21;;;;;;;;;;;;;;;22.46;90.70;99963.45;1712397;82;20151;-86
2021/07/13 06:59:46;;;;;;;;;;;;;;;22.36;91.75;99967.30;1701936;82;20236;-86
2021/07/13 07:02:12;;;;;;;;;;;;;;;22.33;91.99;99952.44;1717051;82;21043;-85
2021/07/13 07:04:38;;;;;;;;;;;;;;;22.38;93.03;99951.73;1705551;82;20339;-87
2021/07/13 07:07:05;;;;;;;;;;;;;;;22.43;91.90;99945.63;1713681;82;20185;-84
2021/07/13 07:09:31;;;;;;;;;;;;;;;22.43;92.43;99939.70;1710469;82;20436;-85
2021/07/13 07:11:56;;;;;;;;;;;;;;;22.51;91.58;99944.73;1703819;82;20154;-84
2021/07/13 07:14:24;;;;;;;;;;;;;;;22.44;91.16;99931.94;1706557;82;20587;-85
2021/07/13 07:16:49;;;;;;;;;;;;;;;22.30;91.83;99908.53;1714872;82;20161;-84
2021/07/13 07:19:15;;;;;;;;;;;;;;;22.42;90.74;99888.31;1713294;82;20154;-86
2021/07/13 07:21:42;;;;;;;;;;;;;;;22.46;89.53;99913.67;1706194;82;21014;-86
2021/07/13 07:24:07;;;;;;;;;;;;;;;22.38;90.41;99937.73;1709048;82;20156;-82
2021/07/13 07:26:33;;;;;;;;;;;;;;;22.34;91.39;99923.66;1702536;83;21313;-89
2021/07/13 07:28:59;;;;;;;;;;;;;;;22.33;92.25;99930.11;1703360;82;20152;-85
2021/07/13 07:31:25;;;;;;;;;;;;;;;22.43;92.40;99934.87;1703504;82;20260;-85
2021/07/13 07:33:51;;;;;;;;;;;;;;;22.54;92.01;99928.61;1708224;82;20353;-86
2021/07/13 07:36:16;;;;;;;;;;;;;;;22.39;92.48;99913.02;1699567;82;20167;-85
2021/07/13 07:38:42;;;;;;;;;;;;;;;22.40;92.25;99910.08;1703255;82;21237;-83
2021/07/13 07:41:10;;;;;;;;;;;;;;;22.38;91.56;99896.03;1705971;82;20451;-86
2021/07/13 07:43:35;;;;;;;;;;;;;;;22.41;91.24;99894.20;1710038;83;20164;-84
2021/07/13 07:46:01;;;;;;;;;;;;;;;22.43;90.84;99885.89;1706427;82;20158;-89
2021/07/13 07:48:26;;;;;;;;;;;;;;;22.54;91.00;99878.31;1695359;82;20462;-83
2021/07/13 07:50:52;;;;;;;;;;;;;;;22.63;90.35;99887.33;1704683;82;21896;-84
2021/07/13 07:53:18;;;;;;;;;;;;;;;22.64;89.85;99883.56;1705501;82;20184;-85
2021/07/13 07:55:44;;;;;;;;;;;;;;;22.55;90.17;99883.97;1707146;82;20584;-88
2021/07/13 07:58:10;;;;;;;;;;;;;;;22.59;90.46;99885.13;1701766;83;20166;-90
2021/07/13 08:00:36;;;;;;;;;;;;;;;22.59;91.46;99885.63;1702488;82;20211;-89
2021/07/13 08:03:01;;;;;;;;;;;;;;;22.55;93.23;99888.00;1705220;83;21152;-82
2021/07/13 08:05:29;;;;;;;;;;;;;;;22.55;94.56;99880.47;1703674;82;21576;-85
2021/07/13 08:07:54;;;;;;;;;;;;;;;22.56;95.50;99882.92;1707046;83;20831;-85
2021/07/13 08:10:20;;;;;;;;;;;;;;;22.70;94.86;99884.77;1705217;82;20202;-86
2021/07/13 08:12:46;;;;;;;;;;;;;;;22.77;94.37;99896.72;1708777;82;20150;-84
2021/07/13 08:15:12;;;;;;;;;;;;;;;22.82;93.97;99905.42;1709683;82;20552;-87
2021/07/13 08:17:41;;;;;;;;;;;;;;;22.90;94.26;99911.23;1703066;82;20155;-87
2021/07/13 08:20:09;;;;;;;;;;;;;;;22.93;93.77;99924.20;1709920;82;20233;-84
2021/07/13 08:22:35;;;;;;;;;;;;;;;22.97;93.43;99930.45;1706976;82;20147;-88
2021/07/13 08:25:03;;;;;;;;;;;;;;;22.94;93.29;99925.82;1701705;82;20281;-84
2021/07/13 08:27:29;;;;;;;;;;;;;;;22.90;93.63;99932.77;1704592;82;21876;-85
2021/07/13 08:29:55;;;;;;;;;;;;;;;22.85;93.21;99927.81;1707717;82;20120;-87
2021/07/13 08:32:21;;;;;;;;;;;;;;;22.79;92.30;99912.09;1706756;82;20152;-85
2021/07/13 08:34:48;;;;;;;;;;;;;;;22.71;92.14;99909.81;1709085;82;20566;-86
2021/07/13 08:37:14;;;;;;;;;;;;;;;22.72;90.97;99898.80;1699256;83;20154;-88
2021/07/13 08:39:39;;;;;;;;;;;;;;;22.46;90.18;99900.21;1700581;82;21055;-85
2021/07/13 08:42:05;;;;;;;;;;;;;;;22.35;90.58;99899.74;1703125;82;20492;-84
2021/07/13 08:44:36;;;;;;;;;;;;;;;22.26;89.25;99918.63;1703913;82;20105;-86
2021/07/13 08:46:59;;;;;;;;;;;;;;;22.23;90.23;99899.23;1712588;82;20139;-88
2021/07/13 08:49:24;;;;;;;;;;;;;;;22.25;90.78;99920.52;1708950;82;20149;-86
2021/07/13 08:51:50;;;;;;;;;;;;;;;22.23;91.00;99920.75;1700844;82;21106;-88
2021/07/13 08:54:16;;;;;;;;;;;;;;;22.24;90.91;99901.39;1701228;83;20477;-84
2021/07/13 08:56:41;;;;;;;;;;;;;;;22.26;89.69;99887.70;1698426;82;20150;-86
2021/07/13 08:59:07;;;;;;;;;;;;;;;22.23;86.75;99854.86;1701247;82;20157;-83
2021/07/13 09:01:32;;;;;;;;;;;;;;;22.11;81.80;99815.09;1702076;83;20644;-87
2021/07/13 09:04:02;;;;;;;;;;;;;;;22.17;82.50;99831.61;1708998;82;21192;-85
2021/07/13 09:06:27;;;;;;;;;;;;;;;22.23;81.83;99810.98;1709946;83;20218;-87
2021/07/13 09:08:55;;;;;;;;;;;;;;;22.28;82.80;99833.13;1664642;83;20871;-85
2021/07/13 09:11:21;;;;;;;;;;;;;;;22.27;82.23;99843.61;1708159;82;20187;-84
2021/07/13 09:13:54;;;;;;;;;;;;;;;22.37;83.62;99863.98;1705642;82;20234;-86
2021/07/13 09:16:29;;;;;;;;;;;;;;;22.41;82.99;99863.27;1702165;82;21111;-87
2021/07/13 09:18:55;;;;;;;;;;;;;;;22.48;83.23;99859.10;1710917;82;20095;-84
2021/07/13 09:21:23;;;;;;;;;;;;;;;22.57;82.75;99854.92;1706691;83;20138;-84
2021/07/13 09:24:19;;;;;;;;;;;;;;;22.67;82.10;99858.85;1706408;83;20218;-88
2021/07/13 09:26:57;;;;;;;;;;;;;;;22.71;81.65;99850.59;1694810;83;20209;-87
2021/07/13 09:29:32;;;;;;;;;;;;;;;22.75;80.57;99863.86;1702029;82;21098;-85
2021/07/13 09:32:19;;;;;;;;;;;;;;;22.78;80.66;99866.06;1705438;82;20214;-85
2021/07/13 09:35:09;;;;;;;;;;;;;;;22.77;80.11;99868.45;1703228;82;20348;-83
2021/07/13 09:37:38;;;;;;;;;;;;;;;22.72;81.13;99857.61;1699364;83;20597;-91
2021/07/13 09:40:09;;;;;;;;;;;;;;;22.65;81.11;99852.37;1699897;82;20226;-88
2021/07/13 09:42:51;;;;;;;;;;;;;;;22.58;81.35;99857.91;1705897;82;21108;-88
2021/07/13 09:45:26;;;;;;;;;;;;;;;22.56;81.67;99851.97;1707402;82;20217;-85
2021/07/13 09:47:53;;;;;;;;;;;;;;;22.61;81.97;99851.23;1702498;82;20230;-88
2021/07/13 09:50:36;;;;;;;;;;;;;;;22.59;82.31;99845.27;1674476;83;20190;-84
2021/07/13 09:53:03;;;;;;;;;;;;;;;22.59;82.22;99849.30;1708640;82;20202;-88
2021/07/13 09:55:30;;;;;;;;;;;;;;;22.57;83.19;99833.39;1707690;83;22320;-85
2021/07/13 09:58:14;;;;;;;;;;;;;;;22.62;82.65;99833.20;1705970;82;20690;-84
2021/07/13 10:00:41;;;;;;;;;;;;;;;22.64;83.34;99841.84;1708196;82;20209;-85
2021/07/13 10:03:07;;;;;;;;;;;;;;;22.68;83.97;99849.19;1705696;82;20214;-85
2021/07/13 10:05:33;;;;;;;;;;;;;;;22.71;83.66;99854.09;1700383;82;20297;-86
2021/07/13 10:07:59;;;;;;;;;;;;;;;22.74;82.44;99856.83;1708640;82;21210;-89
2021/07/13 10:10:24;;;;;;;;;;;;;;;22.74;83.54;99860.87;1708629;82;20504;-89
2021/07/13 10:12:55;;;;;;;;;;;;;;;22.84;83.20;99862.91;1711004;83;20236;-87
2021/07/13 10:15:21;;;;;;;;;;;;;;;22.86;82.12;99864.84;1705837;82;37732;-85
2021/07/13 10:17:47;;;;;;;;;;;;;;;22.93;81.87;99871.70;1704263;82;20164;-85
2021/07/13 10:20:13;;;;;;;;;;;;;;;23.01;81.41;99872.33;1704172;82;21050;-84
2021/07/13 10:22:43;;;;;;;;;;;;;;;23.16;80.99;99882.03;1712179;82;20437;-91
2021/07/13 10:25:09;;;;;;;;;;;;;;;23.28;80.80;99867.94;1698982;82;20221;-88
2021/07/13 10:27:36;;;;;;;;;;;;;;;23.43;81.64;99867.86;1709281;82;20166;-91
2021/07/13 10:30:06;;;;;;;;;;;;;;;23.62;80.63;99853.04;1714504;82;21169;-86
2021/07/13 10:32:32;;;;;;;;;;;;;;;23.80;79.48;99858.67;1714097;82;20185;-84
2021/07/13 10:35:04;;;;;;;;;;;;;;;24.05;79.93;99856.53;1709267;82;20110;-86
2021/07/13 10:37:37;;;;;;;;;;;;;;;24.27;78.23;99870.83;1705731;82;20143;-84
2021/07/13 10:40:10;;;;;;;;;;;;;;;24.48;77.57;99861.03;1706352;82;20470;-85
2021/07/13 10:42:47;;;;;;;;;;;;;;;24.72;77.19;99865.61;1715626;82;20350;-87
2021/07/13 10:45:17;;;;;;;;;;;;;;;24.88;76.71;99865.19;1713067;82;21110;-86
2021/07/13 10:48:19;;;;;;;;;;;;;;;25.04;76.06;99849.90;1707020;82;20103;-83
2021/07/13 10:51:10;;;;;;;;;;;;;;;25.26;75.74;99851.66;1708039;83;20161;-85
2021/07/13 10:53:40;;;;;;;;;;;;;;;25.42;75.64;99839.91;1699063;82;20163;-83
2021/07/13 10:56:14;;;;;;;;;;;;;;;25.58;75.03;99845.39;1705384;82;20203;-86
2021/07/13 10:58:50;;;;;;;;;;;;;;;25.72;73.14;99841.67;1697495;83;21172;-83
2021/07/13 11:01:26;;;;;;;;;;;;;;;25.90;74.54;99841.71;1705534;83;20564;-83
2021/07/13 11:04:05;;;;;;;;;;;;;;;26.07;73.16;99845.06;1699516;82;20156;-84
2021/07/13 11:06:43;;;;;;;;;;;;;;;26.20;71.74;99843.73;1701320;83;20434;-81
2021/07/13 11:09:23;;;;;;;;;;;;;;;26.36;72.28;99836.44;1693299;83;20139;-82
2021/07/13 11:11:49;;;;;;;;;;;;;;;26.48;71.79;99830.23;1704113;83;21079;-83
2021/07/13 11:14:15;;;;;;;;;;;;;;;26.57;72.78;99824.27;1713003;82;20196;-85
2021/07/13 11:16:43;;;;;;;;;;;;;;;26.70;72.26;99819.70;1707274;82;20102;-81
2021/07/13 11:19:15;;;;;;;;;;;;;;;26.74;72.18;99814.02;1707392;82;20242;-87
2021/07/13 11:21:44;;;;;;;;;;;;;;;26.80;71.94;99807.52;1706454;82;20159;-84
2021/07/13 11:24:18;;;;;;;;;;;;;;;26.83;71.97;99802.91;1701727;83;21148;-81
2021/07/13 11:26:48;;;;;;;;;;;;;;;26.93;72.03;99794.50;1714942;82;20167;-83
2021/07/13 11:29:16;;;;;;;;;;;;;;;27.00;72.28;99790.94;1705143;83;20283;-86
2021/07/13 11:31:42;;;;;;;;;;;;;;;27.08;72.37;99779.56;1709892;82;20225;-85
2021/07/13 11:34:09;;;;;;;;;;;;;;;27.26;71.33;99786.82;1709012;82;20188;-85
2021/07/13 11:36:42;;;;;;;;;;;;;;;27.36;71.17;99785.44;1708925;82;21173;-93
2021/07/13 11:39:17;;;;;;;;;;;;;;;27.46;71.05;99789.48;1709011;82;20264;-90
2021/07/13 11:41:43;;;;;;;;;;;;;;;27.53;68.55;99794.07;1699197;83;20211;-86
2021/07/13 11:44:10;;;;;;;;;;;;;;;27.70;69.47;99791.53;1706156;83;20154;-84
2021/07/13 11:46:39;;;;;;;;;;;;;;;27.83;68.31;99785.50;1704626;82;20219;-84
2021/07/13 11:49:12;;;;;;;;;;;;;;;27.96;67.54;99784.65;1706984;83;21211;-81
2021/07/13 11:51:41;;;;;;;;;;;;;;;28.07;65.70;99786.20;1707830;83;20169;-82
2021/07/13 11:54:08;;;;;;;;;;;;;;;28.17;66.17;99786.66;1702460;82;20233;-84
2021/07/13 11:56:35;;;;;;;;;;;;;;;28.25;65.04;99784.17;1696745;83;20218;-90
2021/07/13 11:59:01;;;;;;;;;;;;;;;28.46;65.73;99779.41;1708918;82;20143;-85
2021/07/13 12:01:28;;;;;;;;;;;;;;;28.67;64.92;99776.53;1711715;82;21072;-88
2021/07/13 12:03:55;;;;;;;;;;;;;;;28.73;65.39;99777.27;1700085;82;20152;-85
2021/07/13 12:06:22;;;;;;;;;;;;;;;28.74;65.23;99770.75;1704448;82;20238;-88
2021/07/13 12:08:52;;;;;;;;;;;;;;;28.81;64.34;99766.59;1700497;82;20548;-90
2021/07/13 12:11:24;;;;;;;;;;;;;;;28.86;64.32;99762.22;1710919;82;20203;-88
2021/07/13 12:13:49;;;;;;;;;;;;;;;28.97;64.55;99758.28;1706692;82;21244;-85
2021/07/13 12:16:22;;;;;;;;;;;;;;;29.09;64.73;99755.17;1709119;82;20474;-86
2021/07/13 12:18:46;;;;;;;;;;;;;;;29.14;63.99;99755.10;1714110;82;20123;-87
2021/07/13 12:21:13;;;;;;;;;;;;;;;29.25;62.38;99751.19;1705989;82;20117;-88
2021/07/13 12:23:42;;;;;;;;;;;;;;;29.32;62.98;99751.66;1703275;83;20212;-91
2021/07/13 12:26:32;;;;;;;;;;;;;;;29.43;62.51;99746.06;1694211;83;21648;-86
2021/07/13 12:29:07;;;;;;;;;;;;;;;29.57;60.96;99748.34;1702383;82;20486;-84
2021/07/13 12:31:37;;;;;;;;;;;;;;;29.70;61.14;99751.68;1706160;83;20178;-86
2021/07/13 12:34:15;;;;;;;;;;;;;;;29.85;60.85;99740.36;1706800;83;20814;-86
2021/07/13 12:36:41;;;;;;;;;;;;;;;30.02;61.28;99736.55;1703522;83;20187;-88
2021/07/13 12:39:23;;;;;;;;;;;;;;;30.14;60.96;99733.91;1701864;82;20982;-86
2021/07/13 12:42:10;;;;;;;;;;;;;;;30.25;61.47;99725.82;1702983;82;20914;-89
2021/07/13 12:44:50;;;;;;;;;;;;;;;30.46;60.72;99725.52;1700302;83;20110;-89
2021/07/13 12:47:32;;;;;;;;;;;;;;;30.55;56.95;99727.25;1699276;82;20577;-87
2021/07/13 12:50:19;;;;;;;;;;;;;;;30.53;55.17;99724.03;1700651;82;21147;-87
2021/07/13 12:52:58;;;;;;;;;;;;;;;30.64;55.72;99723.28;1706336;82;21109;-88